sensor_id;sensor_type;location;lat;lon;timestamp;pressure;altitude;pressure_sealevel;temperature;humidity
73896;BME280;73986;50.770;6.080;2024-02-23T08:05:53;97117.50;;;23.60;38.36
73896;BME280;73986;50.770;6.080;2024-02-23T08:15:54;97128.06;;;25.29;35.44
73896;BME280;73986;50.770;6.080;2024-02-23T08:25:57;97126.91;;;26.06;34.25
73896;BME280;73986;50.770;6.080;2024-02-23T08:36:00;97117.25;;;17.53;46.69
73896;BME280;73986;50.770;6.080;2024-02-23T08:46:07;97127.50;;;14.97;50.32
73896;BME280;73986;50.770;6.080;2024-02-23T08:56:09;97112.63;;;13.52;54.51
73896;BME280;73986;50.770;6.080;2024-02-23T09:06:12;97147.81;;;18.11;43.44
73896;BME280;73986;50.770;6.080;2024-02-23T09:16:14;97111.25;;;28.68;29.67
73896;BME280;73986;50.770;6.080;2024-02-23T09:26:17;97109.84;;;31.38;28.31
73896;BME280;73986;50.770;6.080;2024-02-23T09:36:19;97119.28;;;31.32;26.84
73896;BME280;73986;50.770;6.080;2024-02-23T09:46:22;97135.59;;;18.53;42.62
73896;BME280;73986;50.770;6.080;2024-02-23T09:56:27;97109.00;;;12.32;54.44
73896;BME280;73986;50.770;6.080;2024-02-23T10:06:30;97144.19;;;22.53;36.14
73896;BME280;73986;50.770;6.080;2024-02-23T10:16:32;97171.59;;;10.95;56.62
73896;BME280;73986;50.770;6.080;2024-02-23T10:26:35;97168.84;;;16.82;42.24
73896;BME280;73986;50.770;6.080;2024-02-23T10:36:40;97180.13;;;22.57;34.07
73896;BME280;73986;50.770;6.080;2024-02-23T10:46:44;97183.03;;;14.43;46.07
73896;BME280;73986;50.770;6.080;2024-02-23T10:56:47;97201.09;;;16.60;43.32
73896;BME280;73986;50.770;6.080;2024-02-23T11:06:50;97199.31;;;13.35;48.55
73896;BME280;73986;50.770;6.080;2024-02-23T11:16:52;97209.16;;;10.10;53.81
73896;BME280;73986;50.770;6.080;2024-02-23T11:26:57;97193.81;;;9.50;53.21
73896;BME280;73986;50.770;6.080;2024-02-23T11:37:07;97198.78;;;10.87;50.94
73896;BME280;73986;50.770;6.080;2024-02-23T11:47:12;97207.13;;;10.20;53.56
73896;BME280;73986;50.770;6.080;2024-02-23T11:57:13;97222.44;;;10.72;52.54
73896;BME280;73986;50.770;6.080;2024-02-23T12:07:17;97199.88;;;12.51;50.01
73896;BME280;73986;50.770;6.080;2024-02-23T12:17:21;97199.44;;;18.29;40.90
73896;BME280;73986;50.770;6.080;2024-02-23T12:27:24;97214.22;;;12.92;51.71
73896;BME280;73986;50.770;6.080;2024-02-23T12:37:25;97211.09;;;20.96;39.13
73896;BME280;73986;50.770;6.080;2024-02-23T12:47:28;97189.53;;;21.59;39.91
73896;BME280;73986;50.770;6.080;2024-02-23T12:57:30;97177.69;;;22.22;42.48
73896;BME280;73986;50.770;6.080;2024-02-23T13:07:33;97169.56;;;19.42;47.70
73896;BME280;73986;50.770;6.080;2024-02-23T13:17:35;97177.84;;;14.01;52.86
73896;BME280;73986;50.770;6.080;2024-02-23T13:27:38;97181.38;;;16.10;48.79
73896;BME280;73986;50.770;6.080;2024-02-23T13:37:39;97193.66;;;18.32;48.08
73896;BME280;73986;50.770;6.080;2024-02-23T13:47:43;97188.88;;;17.03;49.72
73896;BME280;73986;50.770;6.080;2024-02-23T13:57:46;97199.06;;;14.14;50.42
73896;BME280;73986;50.770;6.080;2024-02-23T14:07:48;97187.47;;;11.92;52.46
73896;BME280;73986;50.770;6.080;2024-02-23T14:17:50;97190.78;;;13.75;51.08
73896;BME280;73986;50.770;6.080;2024-02-23T14:27:53;97180.59;;;11.76;52.81
73896;BME280;73986;50.770;6.080;2024-02-23T14:37:55;97182.09;;;10.09;54.35
73896;BME280;73986;50.770;6.080;2024-02-23T14:47:58;97180.88;;;9.89;53.51
73896;BME280;73986;50.770;6.080;2024-02-23T14:58:00;97186.03;;;9.73;55.10
73896;BME280;73986;50.770;6.080;2024-02-23T15:08:04;97171.34;;;9.88;56.87
73896;BME280;73986;50.770;6.080;2024-02-23T15:18:06;97181.78;;;9.07;58.43
73896;BME280;73986;50.770;6.080;2024-02-23T15:28:09;97195.75;;;8.58;58.75
73896;BME280;73986;50.770;6.080;2024-02-23T15:38:10;97200.34;;;8.97;58.32
73896;BME280;73986;50.770;6.080;2024-02-23T15:48:13;97214.84;;;8.17;59.89
73896;BME280;73986;50.770;6.080;2024-02-23T15:58:15;97212.22;;;8.17;60.12
73896;BME280;73986;50.770;6.080;2024-02-23T16:08:39;97222.31;;;7.95;60.83
73896;BME280;73986;50.770;6.080;2024-02-23T16:18:41;97209.16;;;7.08;62.32
73896;BME280;73986;50.770;6.080;2024-02-23T16:28:44;97211.28;;;6.86;63.16
73896;BME280;73986;50.770;6.080;2024-02-23T16:38:45;97213.44;;;6.73;63.49
73896;BME280;73986;50.770;6.080;2024-02-23T16:48:50;97224.88;;;6.35;64.29
73896;BME280;73986;50.770;6.080;2024-02-23T16:58:51;97237.59;;;6.02;65.31
73896;BME280;73986;50.770;6.080;2024-02-23T17:08:54;97245.00;;;5.78;66.01
73896;BME280;73986;50.770;6.080;2024-02-23T17:18:56;97256.38;;;5.77;66.48
73896;BME280;73986;50.770;6.080;2024-02-23T17:28:59;97260.34;;;5.81;66.35
73896;BME280;73986;50.770;6.080;2024-02-23T17:39:00;97261.56;;;5.87;66.65
73896;BME280;73986;50.770;6.080;2024-02-23T17:49:03;97266.00;;;5.77;66.92
73896;BME280;73986;50.770;6.080;2024-02-23T17:59:06;97268.44;;;5.50;67.46
73896;BME280;73986;50.770;6.080;2024-02-23T18:09:09;97270.41;;;5.28;68.22
73896;BME280;73986;50.770;6.080;2024-02-23T18:19:11;97268.91;;;5.16;68.70
73896;BME280;73986;50.770;6.080;2024-02-23T18:29:13;97295.16;;;4.94;68.56
